Time;durP1;ratioP1;P1;durP2;ratioP2;P2;SDS_P1;SDS_P2;PMS_P1;PMS_P2;Temp;Humidity;BMP_temperature;BMP_pressure;BME280_temperature;BME280_humidity;BME280_pressure;Samples;Min_cycle;Max_cycle;Signal;HPM_P1;HPM_P2
2023/11/02 00:02:22;;;;;;;4.30;1.55;;;;;;;14.19;70.28;99000.03;5013360;28;20060;-47
2023/11/02 00:04:49;;;;;;;4.47;1.55;;;;;;;14.23;70.35;98975.44;5013215;28;20038;-45
2023/11/02 00:07:14;;;;;;;2.70;1.40;;;;;;;13.91;72.02;98970.31;5012948;28;20033;-44
2023/11/02 00:09:40;;;;;;;5.07;1.80;;;;;;;13.97;71.30;98951.81;5012753;28;20030;-45
2023/11/02 00:12:11;;;;;;;5.22;1.50;;;;;;;14.19;70.98;98947.63;5012124;28;20381;-46
2023/11/02 00:14:42;;;;;;;4.85;1.50;;;;;;;14.41;70.36;98948.66;5011494;28;20078;-44
2023/11/02 00:17:30;;;;;;;8.20;1.35;;;;;;;14.54;69.57;98936.00;5010033;28;20117;-45
2023/11/02 00:19:57;;;;;;;3.55;1.30;;;;;;;14.24;70.78;98929.97;5004127;28;20400;-48
2023/11/02 00:22:22;;;;;;;5.90;1.50;;;;;;;14.56;69.71;98926.34;5012749;28;20587;-44
2023/11/02 00:24:51;;;;;;;5.95;1.60;;;;;;;14.21;71.08;98922.19;5013545;28;20148;-44
2023/11/02 00:27:16;;;;;;;6.55;1.60;;;;;;;14.36;70.42;98910.38;5032522;28;20029;-45
2023/11/02 00:29:42;;;;;;;4.90;1.60;;;;;;;14.54;69.58;98900.16;5033121;28;20083;-44
2023/11/02 00:32:08;;;;;;;5.82;1.60;;;;;;;14.38;69.91;98872.75;5030442;28;20055;-43
2023/11/02 00:34:34;;;;;;;5.35;1.70;;;;;;;14.45;69.13;98860.31;5032201;28;20036;-46
2023/11/02 00:37:00;;;;;;;4.97;1.50;;;;;;;14.17;70.56;98848.06;5031519;28;20037;-48
2023/11/02 00:39:26;;;;;;;7.82;1.90;;;;;;;14.40;69.94;98831.59;5031969;28;20033;-47
2023/11/02 00:41:52;;;;;;;9.25;1.33;;;;;;;14.58;68.95;98840.59;5031413;28;20038;-46
2023/11/02 00:44:18;;;;;;;5.53;1.50;;;;;;;14.90;67.72;98824.56;5032170;28;20096;-44
2023/11/02 00:46:46;;;;;;;5.38;1.40;;;;;;;14.42;69.23;98828.94;5031964;28;20486;-44
2023/11/02 00:49:21;;;;;;;6.28;1.30;;;;;;;14.80;68.25;98824.97;5031587;28;20033;-45
2023/11/02 00:51:55;;;;;;;6.15;1.40;;;;;;;14.75;68.00;98825.13;5032021;28;20492;-49
2023/11/02 00:54:54;;;;;;;8.68;1.40;;;;;;;14.76;67.92;98815.50;5031600;28;20029;-44
2023/11/02 00:57:23;;;;;;;3.83;1.33;;;;;;;14.72;67.91;98804.25;5031390;28;20057;-45
2023/11/02 00:59:50;;;;;;;7.85;1.33;;;;;;;14.80;67.67;98786.47;5031988;28;20048;-45
2023/11/02 01:02:17;;;;;;;3.15;1.23;;;;;;;14.57;68.11;98778.59;5032034;28;20041;-47
2023/11/02 01:04:51;;;;;;;5.45;1.30;;;;;;;14.76;68.16;98763.88;5030497;28;20041;-46
2023/11/02 01:07:17;;;;;;;4.97;1.40;;;;;;;14.75;67.74;98761.31;5031806;28;20067;-49
2023/11/02 01:09:49;;;;;;;5.50;1.35;;;;;;;14.90;67.69;98755.47;5031631;28;20034;-48
2023/11/02 01:12:35;;;;;;;4.00;1.40;;;;;;;14.40;68.92;98744.22;5031532;28;20110;-46
2023/11/02 01:15:03;;;;;;;7.72;1.80;;;;;;;14.35;69.26;98733.03;5029765;28;20042;-49
2023/11/02 01:17:38;;;;;;;5.63;1.30;;;;;;;14.97;67.00;98722.88;5031614;28;20078;-45
2023/11/02 01:20:30;;;;;;;10.18;1.40;;;;;;;15.02;66.90;98707.78;5031721;28;20033;-45
2023/11/02 01:23:02;;;;;;;8.55;1.50;;;;;;;15.01;66.68;98701.69;5029896;28;20131;-44
2023/11/02 01:25:29;;;;;;;6.22;1.45;;;;;;;14.81;66.92;98692.88;5031562;28;20038;-46
2023/11/02 01:28:06;;;;;;;8.90;1.40;;;;;;;15.15;65.95;98672.28;5031397;28;20033;-44
2023/11/02 01:30:40;;;;;;;4.95;1.50;;;;;;;14.76;67.00;98666.00;5032018;28;20495;-43
2023/11/02 01:33:33;;;;;;;6.05;1.45;;;;;;;14.60;68.14;98642.09;5031399;28;20129;-44
2023/11/02 01:35:59;;;;;;;5.97;1.33;;;;;;;14.52;68.30;98633.66;5031189;28;20411;-43
2023/11/02 01:38:26;;;;;;;4.18;1.13;;;;;;;15.06;66.54;98625.44;5031889;28;20076;-49
2023/11/02 01:41:00;;;;;;;5.25;1.33;;;;;;;14.81;66.86;98620.31;5031720;28;20131;-44
2023/11/02 01:43:40;;;;;;;3.97;1.30;;;;;;;15.03;66.59;98601.91;5032664;28;20037;-44
2023/11/02 01:46:15;;;;;;;5.93;1.45;;;;;;;14.29;69.29;98555.88;5031850;28;20041;-45
2023/11/02 01:48:47;;;;;;;7.35;1.48;;;;;;;14.85;67.20;98545.81;5032877;28;20037;-45
2023/11/02 01:51:22;;;;;;;3.80;1.20;;;;;;;14.32;68.72;98536.56;5030997;28;20036;-45
2023/11/02 01:54:02;;;;;;;4.70;1.33;;;;;;;14.63;68.01;98521.38;5030521;28;20048;-45
2023/11/02 01:56:43;;;;;;;3.40;1.30;;;;;;;14.68;67.44;98501.06;5029641;28;20041;-44
2023/11/02 01:59:37;;;;;;;5.15;1.30;;;;;;;14.20;69.27;98486.34;5030691;28;20037;-44
2023/11/02 02:02:14;;;;;;;4.40;1.23;;;;;;;14.62;67.98;98467.22;5030138;28;20091;-44
2023/11/02 02:04:51;;;;;;;7.90;1.58;;;;;;;14.66;67.41;98460.91;5030321;28;20076;-44
2023/11/02 02:07:27;;;;;;;5.35;1.30;;;;;;;14.83;66.73;98454.97;5028200;28;20406;-44
2023/11/02 02:10:24;;;;;;;6.60;1.38;;;;;;;14.63;67.53;98455.81;5028698;28;20041;-44
2023/11/02 02:12:59;;;;;;;5.35;1.45;;;;;;;14.42;68.78;98436.56;5029781;28;20461;-44
2023/11/02 02:15:34;;;;;;;7.60;1.63;;;;;;;14.57;67.81;98427.22;5030271;28;20030;-46
2023/11/02 02:18:18;;;;;;;5.45;1.52;;;;;;;14.51;68.09;98422.25;5028621;28;20044;-46
2023/11/02 02:20:52;;;;;;;6.45;1.40;;;;;;;14.88;66.72;98430.22;5029040;28;20110;-47
2023/11/02 02:23:35;;;;;;;5.73;1.40;;;;;;;14.78;67.19;98422.81;5029953;28;20500;-47
2023/11/02 02:26:23;;;;;;;4.28;1.25;;;;;;;14.85;66.91;98400.66;5028913;28;20129;-44
2023/11/02 02:29:29;;;;;;;5.30;1.20;;;;;;;14.71;67.77;98384.66;5029539;28;20053;-45
2023/11/02 02:32:09;;;;;;;6.35;1.40;;;;;;;14.16;68.77;98374.69;5029819;28;20038;-47
2023/11/02 02:35:02;;;;;;;5.20;1.10;;;;;;;14.50;68.49;98371.56;5029985;28;20392;-46
2023/11/02 02:37:34;;;;;;;6.05;1.30;;;;;;;14.46;68.23;98349.00;5029780;28;20037;-45
2023/11/02 02:40:06;;;;;;;4.82;1.48;;;;;;;14.53;67.87;98320.75;5027793;28;20051;-43
2023/11/02 02:42:35;;;;;;;5.03;1.20;;;;;;;14.80;67.20;98324.81;5029637;28;20116;-47
2023/11/02 02:45:06;;;;;;;6.63;1.30;;;;;;;14.71;66.95;98319.97;5029098;28;20423;-44
2023/11/02 02:47:33;;;;;;;6.07;1.50;;;;;;;14.72;66.69;98324.28;5030164;28;20116;-46
2023/11/02 02:50:02;;;;;;;6.55;1.60;;;;;;;14.57;67.58;98304.00;5029180;28;20045;-44
2023/11/02 02:52:29;;;;;;;11.55;1.52;;;;;;;14.60;67.07;98304.69;5029709;28;20064;-43
2023/11/02 02:54:57;;;;;;;3.72;1.10;;;;;;;14.78;66.79;98300.41;5028987;28;20033;-49
2023/11/02 02:57:30;;;;;;;5.60;1.27;;;;;;;14.89;66.06;98286.81;5029628;28;20029;-45
2023/11/02 02:59:59;;;;;;;6.55;1.48;;;;;;;14.65;66.53;98269.53;5029295;28;20774;-46
2023/11/02 03:02:30;;;;;;;4.57;1.30;;;;;;;14.81;66.01;98257.47;5028580;28;20087;-44
2023/11/02 03:04:57;;;;;;;7.18;1.50;;;;;;;14.74;66.53;98240.31;5029141;28;20116;-45
2023/11/02 03:07:27;;;;;;;5.90;1.10;;;;;;;14.63;66.54;98243.41;5029840;28;20550;-48
2023/11/02 03:09:57;;;;;;;5.03;1.30;;;;;;;15.18;65.24;98220.75;5028794;28;20559;-47
2023/11/02 03:12:26;;;;;;;4.93;1.30;;;;;;;14.68;66.28;98196.00;5029686;28;20051;-44
2023/11/02 03:14:56;;;;;;;4.60;1.20;;;;;;;14.40;67.63;98185.88;5027498;28;20034;-44
2023/11/02 03:17:35;;;;;;;7.50;1.10;;;;;;;14.81;66.40;98157.81;5030050;28;20025;-46
2023/11/02 03:20:01;;;;;;;6.85;1.25;;;;;;;14.72;66.45;98150.34;5033235;28;20384;-44
2023/11/02 03:22:26;;;;;;;5.07;1.10;;;;;;;14.63;66.23;98149.03;5031708;28;20048;-44
2023/11/02 03:25:13;;;;;;;3.60;1.20;;;;;;;14.74;66.29;98131.00;5033294;28;20044;-44
2023/11/02 03:28:02;;;;;;;8.27;1.33;;;;;;;14.69;66.62;98161.84;5034020;28;20116;-44
2023/11/02 03:30:29;;;;;;;5.65;1.27;;;;;;;14.93;65.72;98131.00;5033242;28;20064;-47
2023/11/02 03:33:09;;;;;;;5.22;1.40;;;;;;;14.54;66.93;98136.31;5033063;28;20492;-44
2023/11/02 03:35:44;;;;;;;4.35;1.10;;;;;;;14.43;67.39;98110.59;5033619;28;20041;-48
2023/11/02 03:38:12;;;;;;;5.03;1.10;;;;;;;14.32;67.85;98072.69;5031743;28;20053;-46
2023/11/02 03:41:02;;;;;;;4.55;1.00;;;;;;;14.82;65.74;98039.69;5033394;28;20065;-47
2023/11/02 03:43:41;;;;;;;2.88;0.98;;;;;;;14.39;66.43;98030.44;5033374;28;20038;-46
2023/11/02 03:46:18;;;;;;;3.92;0.95;;;;;;;14.81;65.32;98024.03;5033098;28;20044;-49
2023/11/02 03:48:46;;;;;;;4.75;1.10;;;;;;;14.52;66.34;98021.03;5033282;28;20520;-45
2023/11/02 03:51:27;;;;;;;4.95;1.35;;;;;;;14.28;67.58;98010.81;5032535;28;20034;-45
2023/11/02 03:54:00;;;;;;;6.97;1.20;;;;;;;14.80;65.50;98011.84;5032412;28;20033;-48
2023/11/02 03:56:50;;;;;;;4.75;1.15;;;;;;;14.67;65.80;97998.47;5033372;28;20037;-44
2023/11/02 03:59:22;;;;;;;5.45;1.33;;;;;;;14.80;65.75;97983.84;5032775;28;20034;-45
2023/11/02 04:02:07;;;;;;;4.03;0.90;;;;;;;14.44;65.98;97968.16;5033242;28;20041;-46
2023/11/02 04:04:46;;;;;;;5.70;1.20;;;;;;;14.86;64.93;97944.19;5032848;28;20061;-44
2023/11/02 04:07:27;;;;;;;5.18;1.20;;;;;;;14.84;64.72;97921.59;5032347;28;20034;-44
2023/11/02 04:10:00;;;;;;;6.28;1.40;;;;;;;15.32;62.81;97900.69;5032180;28;20037;-45
2023/11/02 04:12:28;;;;;;;6.03;1.10;;;;;;;14.58;64.69;97873.91;5031524;28;20125;-45
2023/11/02 04:14:58;;;;;;;6.60;1.33;;;;;;;14.64;64.14;97864.91;5032532;28;20063;-46
2023/11/02 04:17:24;;;;;;;3.78;1.00;;;;;;;15.02;63.10;97871.66;5032871;28;20025;-47
2023/11/02 04:19:49;;;;;;;4.85;1.00;;;;;;;15.11;62.49;97872.09;5032416;28;20044;-45
2023/11/02 04:22:15;;;;;;;5.10;1.10;;;;;;;14.69;63.65;97854.19;5033102;28;20030;-44
2023/11/02 04:24:41;;;;;;;5.45;1.15;;;;;;;15.14;62.29;97840.44;5032721;28;20504;-44
2023/11/02 04:27:07;;;;;;;5.43;1.10;;;;;;;14.96;62.55;97847.50;5032602;28;20033;-45
2023/11/02 04:29:33;;;;;;;4.60;1.00;;;;;;;14.77;62.27;97829.25;5032690;28;20038;-45
2023/11/02 04:31:58;;;;;;;4.75;0.90;;;;;;;15.02;61.87;97832.28;5031672;28;20037;-44
2023/11/02 04:34:24;;;;;;;3.72;0.98;;;;;;;15.06;61.61;97827.75;5032867;28;20037;-44
2023/11/02 04:36:49;;;;;;;3.80;0.90;;;;;;;14.99;61.66;97826.38;5030980;28;20123;-44
2023/11/02 04:39:14;;;;;;;4.18;1.10;;;;;;;14.91;61.63;97823.31;5033080;28;20369;-45
2023/11/02 04:41:40;;;;;;;3.70;0.95;;;;;;;14.79;61.82;97821.31;5033853;28;20129;-46
2023/11/02 04:44:05;;;;;;;6.93;1.10;;;;;;;15.49;60.01;97809.69;5033936;28;20096;-44
2023/11/02 04:46:31;;;;;;;5.97;1.30;;;;;;;14.79;61.23;97792.47;5037909;28;20034;-47
2023/11/02 04:48:56;;;;;;;5.43;1.33;;;;;;;14.76;61.33;97777.72;5037357;28;20093;-44
2023/11/02 04:51:21;;;;;;;4.55;1.10;;;;;;;14.81;61.62;97774.88;5038150;28;20040;-44
2023/11/02 04:53:47;;;;;;;6.22;0.80;;;;;;;15.29;60.12;97760.91;5037533;28;20069;-44
2023/11/02 04:56:12;;;;;;;4.47;0.93;;;;;;;14.92;61.17;97759.44;5031200;28;20116;-45
2023/11/02 04:58:37;;;;;;;3.97;1.02;;;;;;;15.22;60.22;97764.78;5031812;28;20117;-47
2023/11/02 05:01:03;;;;;;;4.55;1.00;;;;;;;14.82;60.83;97742.50;5031308;28;20492;-45
2023/11/02 05:03:28;;;;;;;6.07;1.00;;;;;;;15.35;59.24;97736.94;5031451;28;20037;-42
2023/11/02 05:05:53;;;;;;;6.03;1.23;;;;;;;15.29;59.70;97727.63;5031347;28;20401;-42
2023/11/02 05:08:19;;;;;;;3.20;0.90;;;;;;;15.06;60.30;97720.19;5031654;28;20038;-46
2023/11/02 05:10:44;;;;;;;3.17;0.85;;;;;;;15.06;60.12;97714.94;5031832;28;20052;-46
2023/11/02 05:13:09;;;;;;;4.13;0.80;;;;;;;15.21;60.05;97697.47;5031121;28;20553;-45
2023/11/02 05:15:35;;;;;;;4.50;0.90;;;;;;;14.92;60.89;97670.25;5031271;28;20058;-47
2023/11/02 05:18:00;;;;;;;4.22;0.82;;;;;;;14.69;61.36;97661.00;5031037;28;20433;-48
2023/11/02 05:20:27;;;;;;;4.82;1.00;;;;;;;15.12;59.93;97672.63;5031168;28;20033;-46
2023/11/02 05:22:53;;;;;;;4.20;0.90;;;;;;;14.77;60.57;97639.59;5029467;28;20045;-44
2023/11/02 05:25:19;;;;;;;1.95;0.70;;;;;;;14.97;61.22;97650.69;5031280;28;20034;-46
2023/11/02 05:27:44;;;;;;;3.65;0.80;;;;;;;14.74;62.08;97640.63;5031102;28;20041;-43
2023/11/02 05:30:10;;;;;;;5.32;0.90;;;;;;;15.51;59.93;97653.75;5031266;28;20034;-43
2023/11/02 05:32:38;;;;;;;3.08;0.80;;;;;;;15.10;60.36;97639.50;5031255;28;20038;-43
2023/11/02 05:35:04;;;;;;;2.60;0.73;;;;;;;15.10;60.88;97627.25;5030791;28;20102;-45
2023/11/02 05:37:29;;;;;;;6.20;0.93;;;;;;;14.83;62.73;97624.38;5030993;28;20034;-44
2023/11/02 05:39:54;;;;;;;2.47;0.77;;;;;;;14.83;63.70;97611.25;5030304;28;20403;-44
2023/11/02 05:42:20;;;;;;;3.88;0.80;;;;;;;14.70;65.50;97601.56;5030369;28;20040;-43
2023/11/02 05:44:45;;;;;;;3.38;0.80;;;;;;;14.38;66.17;97591.06;5030922;28;20033;-46
2023/11/02 05:47:10;;;;;;;3.33;1.00;;;;;;;14.52;65.91;97588.50;5030328;28;20025;-43
2023/11/02 05:49:36;;;;;;;3.53;0.88;;;;;;;14.39;66.12;97584.88;5030755;28;20041;-45
2023/11/02 05:52:01;;;;;;;2.85;0.90;;;;;;;14.71;66.22;97569.13;5030588;28;20492;-45
2023/11/02 05:54:26;;;;;;;2.63;0.73;;;;;;;14.05;69.56;97549.13;5029386;28;20034;-43
2023/11/02 05:56:52;;;;;;;3.25;1.13;;;;;;;13.95;70.45;97547.09;5030389;28;20518;-46
2023/11/02 05:59:17;;;;;;;2.83;0.90;;;;;;;14.26;69.56;97551.53;5029842;28;20123;-46
2023/11/02 06:01:44;;;;;;;6.70;2.00;;;;;;;13.96;71.23;97541.78;5030400;28;20021;-44
2023/11/02 06:04:10;;;;;;;1.75;0.75;;;;;;;13.68;71.72;97518.81;5029978;28;20145;-48
2023/11/02 06:06:35;;;;;;;2.00;0.80;;;;;;;13.59;72.29;97506.22;5030928;28;20719;-44
2023/11/02 06:09:02;;;;;;;2.42;0.73;;;;;;;13.75;71.90;97504.47;5030062;28;20041;-46
2023/11/02 06:11:27;;;;;;;2.60;0.82;;;;;;;13.63;71.96;97496.41;5030872;28;20124;-44
2023/11/02 06:13:52;;;;;;;4.22;0.88;;;;;;;13.85;71.13;97494.34;5030289;28;20149;-44
2023/11/02 06:16:18;;;;;;;3.58;0.90;;;;;;;14.02;70.47;97496.06;5030380;28;20037;-44
2023/11/02 06:18:44;;;;;;;2.85;0.77;;;;;;;14.22;69.88;97483.56;5029920;28;20033;-46
2023/11/02 06:21:09;;;;;;;5.05;1.23;;;;;;;13.78;71.15;97472.88;5030004;28;20064;-47
2023/11/02 06:23:35;;;;;;;3.15;0.90;;;;;;;14.43;69.18;97484.19;5030163;28;20044;-44
2023/11/02 06:26:00;;;;;;;2.72;0.70;;;;;;;14.05;69.94;97475.78;5029706;28;20120;-45
2023/11/02 06:28:25;;;;;;;2.17;0.75;;;;;;;14.19;69.32;97461.94;5030789;28;20044;-47
2023/11/02 06:30:51;;;;;;;1.45;0.60;;;;;;;14.28;69.27;97466.66;5029962;28;20060;-45
2023/11/02 06:33:24;;;;;;;4.75;0.90;;;;;;;14.53;68.75;97466.16;5030194;28;20037;-49
2023/11/02 06:35:49;;;;;;;4.38;0.82;;;;;;;14.29;70.12;97442.16;5029778;28;20060;-54
2023/11/02 06:38:15;;;;;;;3.53;0.80;;;;;;;14.26;70.63;97426.63;5029923;28;20064;-45
2023/11/02 06:40:41;;;;;;;2.35;0.82;;;;;;;14.87;68.30;97418.72;5029980;28;20063;-48
2023/11/02 06:43:06;;;;;;;2.45;0.75;;;;;;;14.44;69.48;97406.41;5029404;28;20030;-46
2023/11/02 06:45:32;;;;;;;2.42;0.80;;;;;;;13.99;71.46;97402.78;5029846;28;20499;-44
2023/11/02 06:47:57;;;;;;;1.90;0.70;;;;;;;14.04;72.10;97407.75;5029566;28;20646;-46
2023/11/02 06:50:24;;;;;;;3.60;0.90;;;;;;;13.85;72.70;97399.22;5030065;28;20399;-48
2023/11/02 06:52:49;;;;;;;4.40;1.08;;;;;;;14.28;71.66;97405.53;5029843;28;20072;-47
2023/11/02 06:55:14;;;;;;;2.47;0.80;;;;;;;14.28;71.26;97393.28;5029790;28;20029;-46
2023/11/02 06:57:39;;;;;;;2.70;1.00;;;;;;;14.54;70.71;97379.56;5029908;28;20034;-44
2023/11/02 07:00:09;;;;;;;1.70;0.70;;;;;;;14.57;70.78;97370.69;5029010;28;20033;-44
2023/11/02 07:02:36;;;;;;;2.58;0.93;;;;;;;14.38;71.01;97370.91;5029514;28;20036;-45
2023/11/02 07:05:04;;;;;;;2.58;0.65;;;;;;;14.58;70.53;97381.06;5029702;28;20054;-43
2023/11/02 07:07:29;;;;;;;1.92;0.73;;;;;;;14.67;70.02;97369.22;5029821;28;20029;-44
2023/11/02 07:09:54;;;;;;;3.05;0.90;;;;;;;14.22;70.87;97338.63;5029161;28;20125;-43
2023/11/02 07:12:20;;;;;;;2.03;0.70;;;;;;;14.86;69.43;97348.84;5028425;28;20034;-43
2023/11/02 07:14:46;;;;;;;4.63;0.90;;;;;;;15.00;69.27;97343.59;5028841;28;20045;-47
2023/11/02 07:17:12;;;;;;;2.15;0.90;;;;;;;14.64;70.13;97340.53;5030436;28;20029;-48
2023/11/02 07:19:37;;;;;;;2.17;0.85;;;;;;;14.77;69.75;97338.88;5030312;28;20113;-43
2023/11/02 07:22:02;;;;;;;2.05;0.93;;;;;;;15.27;68.37;97335.81;5029771;28;20037;-43
2023/11/02 07:24:28;;;;;;;2.28;0.85;;;;;;;14.75;69.75;97335.53;5029814;28;20488;-46
2023/11/02 07:26:54;;;;;;;3.13;1.05;;;;;;;14.39;71.08;97317.59;5029639;28;20029;-44
2023/11/02 07:29:19;;;;;;;2.63;0.90;;;;;;;14.93;69.31;97315.22;5029978;28;20061;-42
2023/11/02 07:31:45;;;;;;;2.55;1.02;;;;;;;14.98;69.44;97310.53;5029974;28;20045;-41
2023/11/02 07:34:10;;;;;;;5.05;1.02;;;;;;;14.90;70.18;97312.78;5029419;28;20400;-46
2023/11/02 07:36:36;;;;;;;2.55;1.10;;;;;;;14.64;71.75;97309.09;5030045;28;20033;-43
2023/11/02 07:39:02;;;;;;;5.20;1.00;;;;;;;15.07;70.67;97309.13;5028691;28;20492;-44
2023/11/02 07:41:27;;;;;;;3.05;1.00;;;;;;;14.84;71.85;97289.53;5030379;28;20395;-42
2023/11/02 07:43:53;;;;;;;3.17;1.20;;;;;;;14.87;72.29;97289.38;5030252;28;20044;-43
2023/11/02 07:46:19;;;;;;;3.28;1.00;;;;;;;15.16;72.09;97271.84;5030694;28;20049;-44
2023/11/02 07:48:44;;;;;;;2.78;0.90;;;;;;;14.60;75.04;97274.38;5030327;28;20025;-43
2023/11/02 07:51:12;;;;;;;3.08;1.02;;;;;;;14.96;73.58;97291.41;5031060;28;20131;-41
2023/11/02 07:53:38;;;;;;;4.78;0.90;;;;;;;14.88;73.91;97256.97;5030390;28;20079;-43
2023/11/02 07:56:04;;;;;;;3.92;0.98;;;;;;;14.48;75.68;97256.75;5028604;28;20500;-44
2023/11/02 07:58:29;;;;;;;2.92;1.10;;;;;;;14.67;75.09;97239.91;5029176;28;20048;-47
2023/11/02 08:00:55;;;;;;;3.10;1.10;;;;;;;14.70;75.52;97250.22;5028997;28;20041;-43
2023/11/02 08:03:21;;;;;;;4.95;1.05;;;;;;;14.92;73.73;97233.06;5029318;28;20413;-43
2023/11/02 08:05:46;;;;;;;3.10;0.98;;;;;;;15.02;73.79;97249.06;5029857;28;20445;-45
2023/11/02 08:08:11;;;;;;;5.53;1.05;;;;;;;14.87;73.36;97235.16;5032484;28;20038;-44
2023/11/02 08:10:37;;;;;;;2.75;0.90;;;;;;;14.83;73.70;97236.25;5032785;28;20029;-44
2023/11/02 08:13:02;;;;;;;4.68;1.00;;;;;;;15.20;72.20;97226.09;5032393;28;20033;-48
2023/11/02 08:15:28;;;;;;;4.00;0.90;;;;;;;14.96;72.59;97210.97;5032735;28;20033;-44
2023/11/02 08:17:53;;;;;;;3.25;0.98;;;;;;;15.04;72.44;97213.09;5030702;28;20040;-42
2023/11/02 08:20:19;;;;;;;5.35;1.20;;;;;;;15.36;71.09;97205.81;5031304;28;20483;-45
2023/11/02 08:22:45;;;;;;;5.55;0.82;;;;;;;15.55;70.44;97201.13;5032352;28;20045;-48
2023/11/02 08:25:10;;;;;;;4.25;1.05;;;;;;;15.57;70.21;97203.63;5031964;28;20143;-48
2023/11/02 08:27:36;;;;;;;4.13;1.00;;;;;;;15.09;70.94;97194.44;5029066;28;20755;-44
2023/11/02 08:30:02;;;;;;;5.03;1.13;;;;;;;15.29;70.12;97194.03;5037394;28;20033;-44
2023/11/02 08:32:28;;;;;;;5.85;0.90;;;;;;;15.66;69.00;97179.41;5032055;28;20040;-44
2023/11/02 08:34:54;;;;;;;7.28;1.10;;;;;;;15.79;68.61;97180.28;5031564;28;20120;-45
2023/11/02 08:37:19;;;;;;;10.13;1.25;;;;;;;15.73;67.90;97178.06;5032174;28;20033;-49
2023/11/02 08:39:44;;;;;;;4.72;1.00;;;;;;;15.55;67.15;97167.00;5032190;28;20045;-46
2023/11/02 08:42:10;;;;;;;6.28;1.00;;;;;;;15.47;66.75;97169.22;5031727;28;20077;-46
2023/11/02 08:44:40;;;;;;;7.18;1.08;;;;;;;15.58;66.20;97153.66;5032106;28;20069;-46
2023/11/02 08:47:06;;;;;;;7.63;1.30;;;;;;;15.52;65.92;97137.41;5031662;28;20033;-46
2023/11/02 08:49:31;;;;;;;10.55;1.60;;;;;;;15.16;66.65;97131.00;5031992;28;20028;-45
2023/11/02 08:51:56;;;;;;;4.25;0.90;;;;;;;15.26;66.07;97141.72;5031786;28;20053;-43
2023/11/02 08:54:22;;;;;;;5.40;1.25;;;;;;;15.59;65.25;97130.84;5032104;28;20044;-48
2023/11/02 08:56:47;;;;;;;8.38;1.10;;;;;;;15.52;65.38;97145.28;5031859;28;20357;-47
2023/11/02 08:59:12;;;;;;;7.82;1.00;;;;;;;15.33;65.47;97115.00;5031180;28;20407;-47
2023/11/02 09:01:38;;;;;;;8.20;1.20;;;;;;;14.98;67.92;97116.44;5031850;28;20030;-45
2023/11/02 09:04:03;;;;;;;6.05;1.13;;;;;;;15.00;68.18;97115.38;5030949;28;20086;-45
2023/11/02 09:06:29;;;;;;;5.68;1.23;;;;;;;14.94;69.09;97122.84;5031407;28;20041;-45
2023/11/02 09:08:56;;;;;;;9.68;1.10;;;;;;;15.21;67.86;97121.03;5031277;28;20040;-44
2023/11/02 09:11:22;;;;;;;3.80;1.02;;;;;;;14.99;68.12;97115.50;5031757;28;20047;-47
2023/11/02 09:13:48;;;;;;;10.32;1.20;;;;;;;14.84;68.82;97104.19;5031828;28;20108;-43
2023/11/02 09:16:14;;;;;;;8.50;1.55;;;;;;;15.00;69.35;97112.75;5031177;28;20030;-43
2023/11/02 09:18:39;;;;;;;7.57;1.13;;;;;;;14.74;69.71;97116.22;5031337;28;20029;-47
2023/11/02 09:21:05;;;;;;;7.28;1.23;;;;;;;15.09;69.24;97105.25;5030928;28;20491;-45
2023/11/02 09:23:32;;;;;;;5.80;1.30;;;;;;;14.79;70.32;97122.00;5031261;28;20061;-44
2023/11/02 09:25:57;;;;;;;8.05;1.30;;;;;;;14.83;69.62;97101.66;5031094;28;20055;-44
2023/11/02 09:28:23;;;;;;;5.68;1.10;;;;;;;15.01;69.76;97111.00;5031495;28;20491;-49
2023/11/02 09:30:48;;;;;;;6.85;1.15;;;;;;;14.95;69.40;97093.03;5031484;28;20034;-44
2023/11/02 09:33:14;;;;;;;7.57;1.05;;;;;;;15.20;68.30;97100.16;5030721;28;20849;-44
2023/11/02 09:35:39;;;;;;;8.25;1.38;;;;;;;15.08;69.38;97099.16;5031349;28;20041;-46
2023/11/02 09:38:06;;;;;;;8.07;1.33;;;;;;;15.06;69.29;97094.97;5030474;28;20064;-43
2023/11/02 09:40:32;;;;;;;8.98;1.13;;;;;;;14.97;69.38;97114.75;5031360;28;20072;-45
2023/11/02 09:43:01;;;;;;;9.27;1.45;;;;;;;15.17;68.41;97121.34;5030503;28;20562;-44
2023/11/02 09:45:27;;;;;;;7.32;1.33;;;;;;;14.76;70.02;97097.78;5029328;28;20061;-45
2023/11/02 09:47:53;;;;;;;10.07;1.40;;;;;;;15.11;68.81;97109.47;5030433;28;20053;-44
2023/11/02 09:50:18;;;;;;;7.40;1.30;;;;;;;15.03;69.07;97099.47;5030971;28;20034;-47
2023/11/02 09:52:46;;;;;;;7.60;1.30;;;;;;;15.12;69.50;97087.56;5030889;28;20120;-44
2023/11/02 09:55:12;;;;;;;6.65;1.20;;;;;;;15.08;69.81;97109.66;5030902;28;20029;-45
2023/11/02 09:57:38;;;;;;;8.75;1.20;;;;;;;14.95;69.22;97106.13;5030763;28;20460;-44
2023/11/02 10:00:07;;;;;;;11.02;1.73;;;;;;;14.57;71.20;97109.41;5030108;28;20048;-45
2023/11/02 10:02:33;;;;;;;10.10;1.80;;;;;;;14.81;71.50;97107.03;5030449;28;20022;-45
2023/11/02 10:04:59;;;;;;;10.43;1.30;;;;;;;14.98;70.73;97087.59;5030156;28;20038;-45
2023/11/02 10:07:25;;;;;;;6.90;1.02;;;;;;;14.80;70.98;97083.53;5030424;28;20481;-47
2023/11/02 10:09:50;;;;;;;10.93;1.52;;;;;;;15.05;67.84;97083.63;5030061;28;20504;-44
2023/11/02 10:12:17;;;;;;;6.47;1.25;;;;;;;15.21;67.09;97044.97;5030679;28;20033;-44
2023/11/02 10:14:42;;;;;;;5.75;1.23;;;;;;;15.55;66.50;97055.88;5030415;28;20615;-46
2023/11/02 10:17:09;;;;;;;6.78;1.00;;;;;;;15.42;65.63;97069.78;5029936;28;20129;-45
2023/11/02 10:19:35;;;;;;;6.70;1.10;;;;;;;15.70;64.47;97063.56;5030589;28;20036;-42
2023/11/02 10:22:02;;;;;;;6.97;1.00;;;;;;;15.67;64.07;97071.66;5030185;28;20033;-47
2023/11/02 10:24:29;;;;;;;7.40;1.00;;;;;;;15.43;64.28;97074.06;5030364;28;20052;-45
2023/11/02 10:26:55;;;;;;;5.95;1.02;;;;;;;15.39;65.25;97082.25;5029945;28;20038;-46
2023/11/02 10:29:20;;;;;;;7.03;1.45;;;;;;;14.84;66.88;97091.09;5030041;28;20042;-45
2023/11/02 10:31:46;;;;;;;7.35;1.20;;;;;;;14.91;67.10;97081.91;5031015;28;20461;-46
2023/11/02 10:34:12;;;;;;;6.28;1.25;;;;;;;15.43;65.95;97081.09;5030603;28;20025;-44
2023/11/02 10:36:37;;;;;;;9.73;1.20;;;;;;;15.34;66.04;97077.31;5032994;28;20382;-44
2023/11/02 10:39:03;;;;;;;7.30;1.30;;;;;;;15.26;67.46;97084.00;5032528;28;20079;-44
2023/11/02 10:41:32;;;;;;;11.18;1.25;;;;;;;14.80;67.74;97083.53;5033223;28;20053;-45
2023/11/02 10:44:03;;;;;;;8.98;1.27;;;;;;;14.95;68.29;97058.94;5033036;28;20064;-45
2023/11/02 10:46:29;;;;;;;8.68;1.00;;;;;;;14.93;67.65;97038.06;5031847;28;20107;-44
2023/11/02 10:48:59;;;;;;;8.05;1.42;;;;;;;15.17;66.63;97050.50;5029455;28;20484;-45
2023/11/02 10:51:29;;;;;;;7.22;1.10;;;;;;;15.22;66.51;97046.66;5028744;28;20514;-43
2023/11/02 10:54:24;;;;;;;6.38;1.17;;;;;;;15.22;66.82;97062.38;5029559;28;20037;-49
2023/11/02 10:56:53;;;;;;;;;;;;;;;15.06;67.41;97045.13;5030154;28;20099;-45
2023/11/02 10:59:19;;;;;;;8.45;1.05;;;;;;;15.23;65.35;97037.84;5030119;28;19920;-44
2023/11/02 11:01:46;;;;;;;4.75;1.05;;;;;;;15.18;64.94;97047.81;5029434;28;20041;-45
2023/11/02 11:04:12;;;;;;;8.15;1.10;;;;;;;15.31;64.05;97026.81;5030217;28;20041;-48
2023/11/02 11:06:44;;;;;;;5.40;1.02;;;;;;;15.45;64.33;97047.72;5030359;28;20025;-48
2023/11/02 11:09:12;;;;;;;9.82;1.00;;;;;;;15.12;63.73;97027.22;5029611;28;20539;-47
2023/11/02 11:11:39;;;;;;;10.95;1.20;;;;;;;15.28;63.53;97022.63;5030125;28;20053;-46
2023/11/02 11:14:05;;;;;;;6.50;1.17;;;;;;;15.39;62.42;97022.75;5029728;28;20030;-44
2023/11/02 11:16:30;;;;;;;5.97;1.15;;;;;;;15.56;62.70;97008.50;5030352;28;20038;-47
2023/11/02 11:18:56;;;;;;;6.40;1.10;;;;;;;15.34;62.47;96989.88;5029867;28;20037;-46
2023/11/02 11:21:24;;;;;;;6.22;1.20;;;;;;;16.01;60.24;97015.00;5030283;28;20128;-45
2023/11/02 11:23:50;;;;;;;7.53;1.30;;;;;;;15.64;60.65;97015.88;5029650;28;20053;-44
2023/11/02 11:26:16;;;;;;;9.95;1.50;;;;;;;16.01;60.69;96987.91;5029989;28;20033;-45
2023/11/02 11:28:41;;;;;;;5.63;1.10;;;;;;;15.85;59.74;97003.91;5028561;28;20076;-45
2023/11/02 11:31:45;;;;;;;10.52;1.20;;;;;;;15.71;60.08;96994.34;5029935;28;20124;-44
2023/11/02 11:34:10;;;;;;;8.05;1.25;;;;;;;15.68;60.38;97009.44;5029966;28;20038;-46
2023/11/02 11:36:36;;;;;;;9.02;1.00;;;;;;;15.97;59.30;96986.44;5030432;28;20452;-44
2023/11/02 11:39:30;;;;;;;6.47;1.38;;;;;;;15.84;58.92;96989.09;5030328;28;20522;-44
2023/11/02 11:41:56;;;;;;;7.03;0.95;;;;;;;15.38;59.51;96979.06;5034665;28;20510;-44
2023/11/02 11:44:22;;;;;;;4.65;0.90;;;;;;;15.73;58.68;97007.38;5034530;28;20038;-47